Log in

Login to your account

Username *
Password *
Remember Me

Vous êtes passioné(e)s d'aviation ? Vous êtes interressé(e)s par une formation au pilotage ? Vous souhaitez offrir ou vous offrir un vol de découverte ?

Notre équipe dynamique vous accueille dans un environnement de vol exceptionel

Retrouvez toutes les informations qui peuvent vous interresser en parcourant notre site. N'hésitez pas à nous contacter si vous souhaitez en savoir plus ! 

Retrouvez nos horaires d'ouverture ici

⇓ RETROUVEZ TOUTES NOS ACTUS ET EVENEMENTS CI DESSOUS ⇓

 

IMG 7090 20

Nous contacter

 Téléphone : +33 (0)4 79 54 41 81

Coordonnées détaillées et accès : cliquez ici

facebook 770688 960 720  logo instagram large

[source: ADDS]
METAR / TAF
LFLB 090830Z AUTO VRB03KT 9999 -RA SCT011 BKN019 OVC060 03/02 Q1001 TEMPO 4000 RA BR BKN006 =
TAF LFLB 090800Z 0909/1009 VRB03KT 8000 -RA BKN020 TEMPO 0909/0918 4000 RA BR BKN006 PROB30 TEMPO 1002/1009 1500 -SN BKN004

SR / SS: 07:04 / 15:52 UTC (Lever/Coucher du soleil le 2022-12-09)
JSN Boot template designed by JoomlaShine.com